createdAt,value
2022-11-01T00:04:46.501Z,24
2022-11-01T00:09:46.435Z,24
2022-11-01T00:14:46.305Z,24
2022-11-01T00:19:46.409Z,23
2022-11-01T00:24:46.245Z,23
2022-11-01T00:29:46.245Z,23
2022-11-01T00:34:46.221Z,22
2022-11-01T00:39:46.180Z,23
2022-11-01T00:44:46.543Z,22
2022-11-01T00:49:46.260Z,23
2022-11-01T00:54:46.137Z,23
2022-11-01T00:59:46.590Z,23
2022-11-01T01:04:46.256Z,23
2022-11-01T01:09:46.426Z,23
2022-11-01T01:14:46.391Z,24
2022-11-01T01:19:46.256Z,23
2022-11-01T01:24:46.380Z,23
2022-11-01T01:29:46.205Z,23
2022-11-01T01:34:46.470Z,23
2022-11-01T01:39:46.371Z,23
2022-11-01T01:44:46.236Z,23
2022-11-01T01:49:46.372Z,22
2022-11-01T01:54:46.292Z,22
2022-11-01T01:59:46.475Z,22
2022-11-01T02:04:46.220Z,22
2022-11-01T02:09:46.171Z,21
2022-11-01T02:14:46.119Z,21
2022-11-01T02:19:46.423Z,20
2022-11-01T02:24:46.078Z,20
2022-11-01T02:29:46.121Z,20
2022-11-01T02:34:50.925Z,20
2022-11-01T02:39:47.914Z,19
2022-11-01T02:44:46.134Z,19
2022-11-01T02:49:47.195Z,19
2022-11-01T02:54:46.019Z,19
2022-11-01T02:59:46.182Z,18
2022-11-01T03:04:46.029Z,18
2022-11-01T03:09:46.183Z,18
2022-11-01T03:14:46.289Z,18
2022-11-01T03:19:46.309Z,17
2022-11-01T03:24:46.299Z,17
2022-11-01T03:29:46.383Z,16
2022-11-01T03:34:46.484Z,16
2022-11-01T03:39:47.529Z,15
2022-11-01T03:44:46.182Z,14
2022-11-01T03:49:46.159Z,14
2022-11-01T03:54:46.129Z,13
2022-11-01T03:59:46.335Z,12
2022-11-01T04:04:46.026Z,12
2022-11-01T04:09:45.989Z,11
2022-11-01T04:14:46.055Z,11
2022-11-01T04:19:46.338Z,10
2022-11-01T04:24:46.155Z,10
2022-11-01T04:29:46.052Z,10
2022-11-01T04:34:46.018Z,9
2022-11-01T04:39:45.962Z,9
2022-11-01T04:44:46.142Z,9
2022-11-01T04:49:46.049Z,9
2022-11-01T04:54:46.260Z,9
2022-11-01T04:59:46.268Z,9
2022-11-01T05:04:46.218Z,8
2022-11-01T05:09:46.115Z,8
2022-11-01T05:14:46.067Z,8
2022-11-01T05:19:46.126Z,7
2022-11-01T05:24:45.903Z,7
2022-11-01T05:29:46.141Z,7
2022-11-01T05:34:45.872Z,7
2022-11-01T05:39:46.226Z,7
2022-11-01T05:44:45.972Z,7
2022-11-01T05:49:45.933Z,7
2022-11-01T05:54:46.129Z,7
2022-11-01T05:59:46.108Z,7
2022-11-01T06:04:45.831Z,7
2022-11-01T06:09:46.050Z,7
2022-11-01T06:14:45.909Z,7
2022-11-01T06:19:45.877Z,6
2022-11-01T06:24:46.338Z,6
2022-11-01T06:29:46.155Z,6
2022-11-01T06:34:46.095Z,6
2022-11-01T06:39:46.111Z,6
2022-11-01T06:44:45.831Z,6
2022-11-01T06:49:46.072Z,6
2022-11-01T06:54:46.062Z,7
2022-11-01T06:59:46.313Z,7
2022-11-01T07:04:45.824Z,7
2022-11-01T07:09:45.850Z,7
2022-11-01T07:14:45.814Z,7
2022-11-01T07:19:46.407Z,7
2022-11-01T07:24:46.230Z,7
2022-11-01T07:29:45.984Z,7
2022-11-01T07:34:46.040Z,7
2022-11-01T07:39:46.072Z,7
2022-11-01T07:44:46.086Z,7
2022-11-01T07:49:45.754Z,7
2022-11-01T07:54:46.026Z,7
2022-11-01T07:59:45.847Z,7
2022-11-01T08:04:45.898Z,7
2022-11-01T08:09:45.743Z,7
2022-11-01T08:14:46.081Z,7
2022-11-01T08:19:46.030Z,8
2022-11-01T08:24:45.700Z,8
2022-11-01T08:29:45.926Z,8
2022-11-01T08:34:45.862Z,8
2022-11-01T08:39:45.868Z,8
2022-11-01T08:44:45.856Z,8
2022-11-01T08:49:45.737Z,8
2022-11-01T08:54:45.709Z,8
2022-11-01T08:59:45.922Z,7
2022-11-01T09:04:45.701Z,8
2022-11-01T09:09:45.729Z,8
2022-11-01T09:14:45.905Z,8
2022-11-01T09:19:46.160Z,8
2022-11-01T09:24:45.909Z,8
2022-11-01T09:29:48.132Z,8
2022-11-01T09:34:45.796Z,7
2022-11-01T09:39:45.861Z,7
2022-11-01T09:44:45.734Z,7
2022-11-01T09:49:45.854Z,8
2022-11-01T09:54:45.646Z,8
2022-11-01T09:59:45.607Z,7
2022-11-01T10:04:53.792Z,8
2022-11-01T10:09:45.947Z,7
2022-11-01T10:14:45.705Z,8
2022-11-01T10:19:47.070Z,7
2022-11-01T10:24:45.603Z,7
2022-11-01T10:29:45.655Z,7
2022-11-01T10:34:45.730Z,8
2022-11-01T10:39:57.008Z,8
2022-11-01T10:44:45.643Z,7
2022-11-01T10:50:04.785Z,7
2022-11-01T10:54:45.976Z,7
2022-11-01T10:59:45.685Z,7
2022-11-01T11:04:45.598Z,8
2022-11-01T11:09:45.868Z,8
2022-11-01T11:14:45.602Z,8
2022-11-01T11:19:45.816Z,8
2022-11-01T11:24:45.596Z,8
2022-11-01T11:29:45.599Z,8
2022-11-01T11:34:50.847Z,8
2022-11-01T11:39:45.783Z,8
2022-11-01T11:44:45.543Z,7
2022-11-01T11:49:45.559Z,7
2022-11-01T11:54:45.513Z,7
2022-11-01T11:59:49.333Z,7
2022-11-01T12:04:46.942Z,7
2022-11-01T12:09:45.595Z,7
2022-11-01T12:14:45.604Z,7
2022-11-01T12:19:45.615Z,7
2022-11-01T12:24:45.688Z,7
2022-11-01T12:29:45.753Z,7
2022-11-01T12:34:45.714Z,7
2022-11-01T12:39:49.642Z,7
2022-11-01T12:44:45.754Z,7
2022-11-01T12:49:45.659Z,7
2022-11-01T12:54:49.211Z,7
2022-11-01T12:59:45.565Z,7
2022-11-01T13:04:45.447Z,7
2022-11-01T13:09:45.662Z,7
2022-11-01T13:14:51.499Z,7
2022-11-01T13:19:49.408Z,7
2022-11-01T13:24:48.674Z,7
2022-11-01T13:29:53.019Z,7
2022-11-01T13:34:50.315Z,7
2022-11-01T13:39:45.641Z,7
2022-11-01T13:44:45.416Z,7
2022-11-01T13:49:45.607Z,7
2022-11-01T13:54:45.436Z,7
2022-11-01T13:59:51.716Z,7
2022-11-01T14:04:45.365Z,6
2022-11-01T14:09:45.582Z,6
2022-11-01T14:14:45.536Z,6
2022-11-01T14:19:46.163Z,6
2022-11-01T14:24:51.491Z,6
2022-11-01T14:29:53.273Z,6
2022-11-01T14:34:54.930Z,6
2022-11-01T14:39:45.633Z,6
2022-11-01T14:44:48.108Z,6
2022-11-01T14:49:45.458Z,6
2022-11-01T14:54:45.463Z,6
2022-11-01T14:59:45.369Z,6
2022-11-01T15:04:45.512Z,6
2022-11-01T15:09:45.500Z,6
2022-11-01T15:14:45.569Z,6
2022-11-01T15:19:45.800Z,6
2022-11-01T15:24:45.470Z,6
2022-11-01T15:29:45.434Z,6
2022-11-01T15:34:45.315Z,6
2022-11-01T15:39:45.556Z,7
2022-11-01T15:44:46.407Z,6
2022-11-01T15:49:45.402Z,6
2022-11-01T15:54:45.578Z,6
2022-11-01T15:59:45.535Z,7
2022-11-01T16:04:45.517Z,7
2022-11-01T16:09:45.466Z,7
2022-11-01T16:14:45.128Z,6
2022-11-01T16:19:45.481Z,6
2022-11-01T16:24:45.499Z,6
2022-11-01T16:29:48.897Z,7
2022-11-01T16:34:45.383Z,6
2022-11-01T16:39:45.188Z,7
2022-11-01T16:44:46.915Z,7
2022-11-01T16:49:45.230Z,7
2022-11-01T16:54:45.351Z,7
2022-11-01T16:59:45.423Z,7
2022-11-01T17:04:45.509Z,7
2022-11-01T17:09:45.418Z,7
2022-11-01T17:14:45.242Z,8
2022-11-01T17:19:45.518Z,7
2022-11-01T17:24:45.388Z,7
2022-11-01T17:29:45.207Z,7
2022-11-01T17:34:45.284Z,7
2022-11-01T17:39:45.525Z,8
2022-11-01T17:44:45.397Z,8
2022-11-01T17:49:45.159Z,7
2022-11-01T17:54:45.522Z,7
2022-11-01T17:59:45.434Z,7
2022-11-01T18:04:45.255Z,8
2022-11-01T18:09:45.040Z,7
2022-11-01T18:14:45.476Z,7
2022-11-01T18:19:45.108Z,8
2022-11-01T18:24:45.094Z,8
2022-11-01T18:29:47.216Z,7
2022-11-01T18:34:46.740Z,7
2022-11-01T18:39:50.273Z,8
2022-11-01T18:44:45.945Z,8
2022-11-01T18:49:45.160Z,8
2022-11-01T18:54:45.346Z,8
2022-11-01T18:59:46.059Z,8
2022-11-01T19:04:46.011Z,8
2022-11-01T19:09:45.083Z,8
2022-11-01T19:14:45.187Z,8
2022-11-01T19:19:45.342Z,8
2022-11-01T19:24:45.218Z,8
2022-11-01T19:29:45.329Z,8
2022-11-01T19:34:45.195Z,8
2022-11-01T19:39:45.077Z,8
2022-11-01T19:44:45.317Z,9
2022-11-01T19:49:45.215Z,8
2022-11-01T19:54:45.075Z,8
2022-11-01T19:59:45.190Z,8
2022-11-01T20:04:45.141Z,8
2022-11-01T20:09:45.596Z,8
2022-11-01T20:14:45.061Z,8
2022-11-01T20:19:45.155Z,8
2022-11-01T20:24:45.486Z,8
2022-11-01T20:29:45.244Z,9
2022-11-01T20:34:45.061Z,9
2022-11-01T20:39:45.231Z,9
2022-11-01T20:44:44.884Z,9
2022-11-01T20:49:45.282Z,9
2022-11-01T20:54:45.074Z,9
2022-11-01T20:59:45.218Z,9
2022-11-01T21:04:45.114Z,9
2022-11-01T21:09:45.908Z,9
2022-11-01T21:14:45.181Z,8
2022-11-01T21:19:45.201Z,8
2022-11-01T21:24:45.140Z,9
2022-11-01T21:29:46.451Z,9
2022-11-01T21:34:45.210Z,9
2022-11-01T21:39:45.119Z,8
2022-11-01T21:44:45.235Z,8
2022-11-01T21:49:45.367Z,8
2022-11-01T21:54:45.185Z,8
2022-11-01T21:59:44.921Z,8
2022-11-01T22:04:44.914Z,8
2022-11-01T22:09:44.908Z,8
2022-11-01T22:14:44.871Z,8
2022-11-01T22:19:45.034Z,8
2022-11-01T22:24:44.843Z,7
2022-11-01T22:29:44.908Z,7
2022-11-01T22:34:45.052Z,7
2022-11-01T22:39:46.952Z,8
2022-11-01T22:44:45.103Z,8
2022-11-01T22:49:45.197Z,8
2022-11-01T22:54:45.014Z,7
2022-11-01T22:59:45.263Z,7
2022-11-01T23:04:44.869Z,7
2022-11-01T23:09:44.932Z,7
2022-11-01T23:14:44.940Z,7
2022-11-01T23:19:45.018Z,7
2022-11-01T23:24:44.735Z,7
2022-11-01T23:29:45.020Z,7
2022-11-01T23:34:44.904Z,7
2022-11-01T23:39:44.756Z,7
2022-11-01T23:44:46.089Z,8
2022-11-01T23:49:44.743Z,8
2022-11-01T23:54:44.968Z,8
2022-11-01T23:59:45.210Z,8
